createdAt,value
2019-06-07T00:00:32.182Z,79.90
2019-06-07T00:01:32.751Z,79.90
2019-06-07T00:02:03.956Z,79.90
2019-06-07T00:02:35.098Z,79.90
2019-06-07T00:03:09.243Z,79.90
2019-06-07T00:03:39.070Z,80.00
2019-06-07T00:04:11.584Z,80.00
2019-06-07T00:04:43.057Z,80.00
2019-06-07T00:05:17.979Z,80.30
2019-06-07T00:05:46.997Z,80.30
2019-06-07T00:06:23.771Z,80.30
2019-06-07T00:06:51.320Z,80.40
2019-06-07T00:07:22.495Z,80.50
2019-06-07T00:07:53.654Z,80.50
2019-06-07T00:08:28.660Z,80.50
2019-06-07T00:08:57.961Z,80.60
2019-06-07T00:09:29.081Z,80.60
2019-06-07T00:10:00.193Z,80.60
2019-06-07T00:10:36.641Z,80.60
2019-06-07T00:11:04.169Z,80.50
2019-06-07T00:11:35.298Z,80.50
2019-06-07T00:12:09.148Z,80.50
2019-06-07T00:12:39.265Z,80.50
2019-06-07T00:13:12.124Z,80.50
2019-06-07T00:13:43.218Z,80.50
2019-06-07T00:14:16.130Z,79.90
2019-06-07T00:14:47.438Z,80.30
2019-06-07T00:15:27.866Z,80.30
2019-06-07T00:15:51.389Z,80.30
2019-06-07T00:16:23.457Z,80.30
2019-06-07T00:16:54.797Z,80.30
2019-06-07T00:17:25.931Z,80.30
2019-06-07T00:17:57.069Z,80.30
2019-06-07T00:18:28.181Z,80.30
2019-06-07T00:18:59.297Z,80.30
2019-06-07T00:19:30.437Z,80.20
2019-06-07T00:20:01.544Z,80.20
2019-06-07T00:20:32.681Z,80.00
2019-06-07T00:21:03.765Z,79.70
2019-06-07T00:22:13.861Z,79.50
2019-06-07T00:22:16.531Z,79.30
2019-06-07T00:22:40.841Z,79.40
2019-06-07T00:23:14.758Z,79.50
2019-06-07T00:23:45.145Z,79.50
2019-06-07T00:24:18.562Z,79.60
2019-06-07T00:24:49.094Z,79.50
2019-06-07T00:25:24.148Z,79.50
2019-06-07T00:25:53.042Z,79.50
2019-06-07T00:26:24.152Z,79.50
2019-06-07T00:26:59.001Z,79.50
2019-06-07T00:27:28.113Z,79.60
2019-06-07T00:27:59.253Z,79.60
2019-06-07T00:28:30.372Z,79.50
2019-06-07T00:29:01.482Z,79.60
2019-06-07T00:29:32.941Z,79.50
2019-06-07T00:30:29.557Z,79.60
2019-06-07T00:30:50.887Z,79.50
2019-06-07T00:31:11.449Z,79.50
2019-06-07T00:31:42.598Z,79.50
2019-06-07T00:32:14.971Z,79.60
2019-06-07T00:32:46.549Z,79.60
2019-06-07T00:33:23.341Z,79.50
2019-06-07T00:33:50.522Z,79.50
2019-06-07T00:34:23.023Z,79.40
2019-06-07T00:34:54.497Z,79.40
2019-06-07T00:35:25.866Z,79.40
2019-06-07T00:35:56.985Z,79.50
2019-06-07T00:36:28.157Z,79.40
2019-06-07T00:36:59.296Z,79.40
2019-06-07T00:37:30.422Z,79.40
2019-06-07T00:38:01.540Z,79.40
2019-06-07T00:38:32.654Z,79.40
2019-06-07T00:39:03.769Z,79.40
2019-06-07T00:39:34.885Z,79.30
2019-06-07T00:40:17.812Z,79.30
2019-06-07T00:40:38.829Z,79.30
2019-06-07T00:41:10.093Z,79.30
2019-06-07T00:41:41.228Z,79.30
2019-06-07T00:42:16.664Z,79.30
2019-06-07T00:42:45.188Z,79.30
2019-06-07T00:43:17.571Z,79.30
2019-06-07T00:43:49.138Z,79.30
2019-06-07T00:44:23.029Z,79.30
2019-06-07T00:44:53.089Z,79.20
2019-06-07T00:45:24.861Z,79.20
2019-06-07T00:45:56.352Z,79.30
2019-06-07T00:46:27.488Z,79.20
2019-06-07T00:46:58.598Z,79.10
2019-06-07T00:47:29.712Z,79.10
2019-06-07T00:48:00.825Z,79.30
2019-06-07T00:48:33.060Z,79.50
2019-06-07T00:49:04.328Z,79.60
2019-06-07T00:49:41.058Z,79.60
2019-06-07T00:50:08.565Z,79.60
2019-06-07T00:50:39.917Z,79.70
2019-06-07T00:51:11.616Z,79.80
2019-06-07T00:51:50.355Z,80.00
2019-06-07T00:53:05.623Z,79.90
2019-06-07T00:53:31.097Z,80.00
2019-06-07T00:53:54.220Z,80.00
2019-06-07T00:54:25.385Z,80.00
2019-06-07T00:54:56.530Z,80.00
2019-06-07T00:55:27.861Z,80.10
2019-06-07T00:55:59.033Z,80.10
2019-06-07T00:56:30.154Z,80.00
2019-06-07T00:57:01.261Z,80.00
2019-06-07T00:57:32.409Z,80.00
2019-06-07T00:58:03.523Z,80.00
2019-06-07T00:58:34.935Z,79.90
2019-06-07T00:59:11.452Z,79.90
2019-06-07T00:59:38.877Z,79.90
2019-06-07T01:00:09.990Z,79.90
2019-06-07T01:00:41.098Z,79.90
2019-06-07T01:01:13.110Z,79.90
2019-06-07T01:01:45.190Z,80.00
2019-06-07T01:02:18.547Z,79.90
2019-06-07T01:02:49.167Z,79.60
2019-06-07T01:03:23.814Z,79.20
2019-06-07T01:03:53.505Z,78.70
2019-06-07T01:04:26.491Z,78.50
2019-06-07T01:04:57.498Z,78.60
2019-06-07T01:05:31.382Z,78.70
2019-06-07T01:06:01.522Z,78.90
2019-06-07T01:06:32.655Z,79.00
2019-06-07T01:07:03.763Z,79.20
2019-06-07T01:07:34.967Z,79.20
2019-06-07T01:08:06.326Z,79.10
2019-06-07T01:08:37.442Z,79.00
2019-06-07T01:09:08.585Z,78.90
2019-06-07T01:09:39.696Z,78.90
2019-06-07T01:10:10.815Z,79.00
2019-06-07T01:10:53.083Z,79.00
2019-06-07T01:11:15.942Z,79.00
2019-06-07T01:11:47.665Z,79.00
2019-06-07T01:12:20.179Z,79.00
2019-06-07T01:12:51.695Z,78.90
2019-06-07T01:13:26.558Z,79.00
2019-06-07T01:13:55.653Z,78.90
2019-06-07T01:14:28.338Z,78.90
2019-06-07T01:14:59.768Z,79.00
2019-06-07T01:15:30.890Z,78.90
2019-06-07T01:16:01.992Z,78.80
2019-06-07T01:16:55.740Z,78.90
2019-06-07T01:17:22.759Z,78.90
2019-06-07T01:17:59.956Z,78.90
2019-06-07T01:18:36.180Z,79.00
2019-06-07T01:18:46.729Z,78.80
2019-06-07T01:19:18.988Z,78.80
2019-06-07T01:19:50.737Z,78.70
2019-06-07T01:20:24.178Z,78.70
2019-06-07T01:20:55.012Z,78.90
2019-06-07T01:21:29.621Z,78.90
2019-06-07T01:21:59.009Z,78.90
2019-06-07T01:22:30.128Z,79.00
2019-06-07T01:23:01.520Z,79.00
2019-06-07T01:24:04.706Z,79.00
2019-06-07T01:24:11.967Z,79.00
2019-06-07T01:24:38.417Z,78.90
2019-06-07T01:25:09.529Z,79.00
2019-06-07T01:25:40.640Z,79.00
2019-06-07T01:26:11.790Z,79.00
2019-06-07T01:26:42.908Z,79.80
2019-06-07T01:27:16.438Z,78.90
2019-06-07T01:27:46.887Z,78.90
2019-06-07T01:28:21.354Z,78.90
2019-06-07T01:28:50.843Z,78.90
2019-06-07T01:29:24.211Z,78.90
2019-06-07T01:29:55.105Z,78.70
2019-06-07T01:30:26.801Z,78.70
2019-06-07T01:30:58.108Z,79.40
2019-06-07T01:31:31.529Z,79.00
2019-06-07T01:32:02.397Z,79.20
2019-06-07T01:32:33.493Z,79.30
2019-06-07T01:33:04.625Z,79.30
2019-06-07T01:33:50.248Z,79.40
2019-06-07T01:34:08.596Z,79.50
2019-06-07T01:34:39.980Z,79.50
2019-06-07T01:35:11.088Z,79.60
2019-06-07T01:35:42.205Z,79.60
2019-06-07T01:36:13.322Z,79.60
2019-06-07T01:36:44.433Z,79.60
2019-06-07T01:37:16.854Z,79.60
2019-06-07T01:37:48.377Z,79.60
2019-06-07T01:38:21.935Z,79.60
2019-06-07T01:38:52.401Z,79.60
2019-06-07T01:39:28.378Z,79.60
2019-06-07T01:39:56.417Z,79.60
2019-06-07T01:40:30.446Z,79.60
2019-06-07T01:41:00.408Z,79.60
2019-06-07T01:41:31.569Z,79.50
2019-06-07T01:42:02.692Z,79.50
2019-06-07T01:42:33.810Z,79.50
2019-06-07T01:43:05.181Z,79.50
2019-06-07T01:43:36.300Z,79.50
2019-06-07T01:44:07.417Z,79.50
2019-06-07T01:44:38.529Z,79.50
2019-06-07T01:45:09.721Z,79.40
2019-06-07T01:45:41.085Z,79.30
2019-06-07T01:46:12.513Z,79.20
2019-06-07T01:46:43.620Z,78.90
2019-06-07T01:47:14.761Z,79.30
2019-06-07T01:47:45.923Z,78.60
2019-06-07T01:48:20.750Z,78.70
2019-06-07T01:48:50.095Z,78.80
2019-06-07T01:49:22.152Z,79.00
2019-06-07T01:49:53.941Z,79.00
2019-06-07T01:50:27.028Z,78.90
2019-06-07T01:50:58.177Z,78.70
2019-06-07T01:51:30.713Z,78.50
2019-06-07T01:52:02.421Z,78.50
2019-06-07T01:52:33.541Z,78.60
2019-06-07T01:53:04.654Z,79.30
2019-06-07T01:53:35.777Z,78.80
2019-06-07T01:54:49.575Z,78.70
2019-06-07T01:54:56.641Z,78.70
2019-06-07T01:55:12.582Z,78.70
2019-06-07T01:55:43.697Z,78.70
2019-06-07T01:56:15.185Z,78.70
2019-06-07T01:56:46.293Z,78.70
2019-06-07T01:57:36.583Z,78.60
2019-06-07T01:57:50.540Z,78.60
2019-06-07T01:58:22.312Z,78.60
2019-06-07T01:58:54.145Z,78.50
2019-06-07T01:59:27.703Z,78.50
2019-06-07T01:59:58.101Z,78.40
2019-06-07T02:00:32.313Z,78.40
2019-06-07T02:01:02.045Z,78.50
2019-06-07T02:01:35.160Z,78.60
2019-06-07T02:02:06.008Z,78.60
2019-06-07T02:02:37.168Z,79.20
2019-06-07T02:03:08.354Z,78.40
2019-06-07T02:03:39.466Z,78.50
2019-06-07T02:04:10.605Z,78.50
2019-06-07T02:04:41.717Z,78.50
2019-06-07T02:05:12.830Z,78.60
2019-06-07T02:05:43.936Z,78.60
2019-06-07T02:06:15.105Z,78.70
2019-06-07T02:06:46.212Z,78.70
2019-06-07T02:07:19.439Z,78.70
2019-06-07T02:07:50.157Z,78.70
2019-06-07T02:08:22.211Z,78.80
2019-06-07T02:08:54.185Z,78.60
2019-06-07T02:09:28.430Z,78.40
2019-06-07T02:09:58.164Z,78.40
2019-06-07T02:10:33.176Z,78.30
2019-06-07T02:11:02.439Z,78.20
2019-06-07T02:11:33.715Z,78.30
2019-06-07T02:12:25.090Z,78.20
2019-06-07T02:12:42.830Z,78.20
2019-06-07T02:13:10.628Z,78.30
2019-06-07T02:13:41.736Z,78.20
2019-06-07T02:14:12.853Z,78.40
2019-06-07T02:14:43.966Z,78.60
2019-06-07T02:15:15.095Z,78.80
2019-06-07T02:15:46.188Z,78.90
2019-06-07T02:16:17.715Z,79.00
2019-06-07T02:16:48.812Z,79.00
2019-06-07T02:17:20.246Z,79.10
2019-06-07T02:17:52.766Z,79.10
2019-06-07T02:18:28.205Z,79.30
2019-06-07T02:19:02.107Z,79.20
2019-06-07T02:19:31.703Z,79.20
2019-06-07T02:20:02.451Z,79.20
2019-06-07T02:20:34.655Z,79.20
2019-06-07T02:21:05.957Z,79.20
2019-06-07T02:21:37.074Z,79.20
2019-06-07T02:22:08.234Z,79.20
2019-06-07T02:22:39.589Z,79.20
2019-06-07T02:23:10.715Z,79.20
2019-06-07T02:23:41.812Z,80.00
2019-06-07T02:24:13.287Z,79.10
2019-06-07T02:24:44.399Z,79.10
2019-06-07T02:25:50.404Z,79.10
2019-06-07T02:26:22.792Z,79.00
2019-06-07T02:26:54.117Z,79.00
2019-06-07T02:27:26.082Z,79.00
2019-06-07T02:28:25.844Z,78.90
2019-06-07T02:28:44.702Z,78.50
2019-06-07T02:29:03.786Z,77.80
2019-06-07T02:29:34.897Z,77.70
2019-06-07T02:30:37.277Z,77.50
2019-06-07T02:30:47.281Z,77.50
2019-06-07T02:31:11.705Z,77.90
2019-06-07T02:31:42.838Z,78.20
2019-06-07T02:32:13.946Z,78.30
2019-06-07T02:32:45.130Z,78.30
2019-06-07T02:33:16.255Z,77.90
2019-06-07T02:33:47.369Z,78.00
2019-06-07T02:34:18.488Z,78.20
2019-06-07T02:34:49.596Z,78.40
2019-06-07T02:35:25.610Z,78.60
2019-06-07T02:35:53.558Z,78.60
2019-06-07T02:36:28.842Z,78.40
2019-06-07T02:36:57.522Z,78.50
2019-06-07T02:37:33.619Z,78.30
2019-06-07T02:38:01.481Z,78.30
2019-06-07T02:38:37.369Z,78.40
2019-06-07T02:39:05.770Z,78.40
2019-06-07T02:39:40.676Z,78.50
2019-06-07T02:40:10.083Z,78.50
2019-06-07T02:40:41.197Z,78.50
2019-06-07T02:41:12.319Z,78.50
2019-06-07T02:41:43.445Z,78.60
2019-06-07T02:42:14.561Z,78.60
2019-06-07T02:42:45.685Z,78.50
2019-06-07T02:43:16.791Z,78.30
2019-06-07T02:43:47.894Z,78.30
2019-06-07T02:44:19.015Z,78.80
2019-06-07T02:44:50.448Z,78.10
2019-06-07T02:45:24.200Z,78.10
2019-06-07T02:45:54.419Z,78.20
2019-06-07T02:46:35.037Z,78.20
2019-06-07T02:46:58.390Z,78.30
2019-06-07T02:47:32.253Z,78.50
2019-06-07T02:48:02.673Z,78.80
2019-06-07T02:48:39.429Z,78.40
2019-06-07T02:49:06.621Z,78.40
2019-06-07T02:49:41.649Z,78.30
2019-06-07T02:50:10.618Z,78.20
2019-06-07T02:50:41.718Z,78.20
2019-06-07T02:51:13.150Z,78.10
2019-06-07T02:51:44.285Z,78.90
2019-06-07T02:52:15.388Z,78.20
2019-06-07T02:52:46.502Z,78.10
2019-06-07T02:53:17.618Z,78.00
2019-06-07T02:53:48.728Z,78.00
2019-06-07T02:54:19.842Z,78.00
2019-06-07T02:54:50.954Z,78.00
2019-06-07T02:55:24.878Z,78.20
2019-06-07T02:56:35.296Z,77.60
2019-06-07T02:56:40.359Z,78.00
2019-06-07T02:57:00.600Z,78.20
2019-06-07T02:57:36.901Z,78.50
2019-06-07T02:58:04.571Z,79.50
2019-06-07T02:58:41.500Z,78.60
2019-06-07T02:59:08.578Z,78.60
2019-06-07T03:00:05.504Z,78.70
2019-06-07T03:00:40.760Z,78.70
2019-06-07T03:01:05.476Z,78.70
2019-06-07T03:01:18.297Z,78.90
2019-06-07T03:01:49.416Z,79.20
2019-06-07T03:02:20.546Z,79.00
2019-06-07T03:02:51.653Z,79.00
2019-06-07T03:03:22.786Z,79.00
2019-06-07T03:03:53.902Z,79.00
2019-06-07T03:04:28.525Z,79.00
2019-06-07T03:04:57.920Z,79.10
2019-06-07T03:05:30.525Z,79.10
2019-06-07T03:06:01.878Z,79.10
2019-06-07T03:06:38.742Z,79.20
2019-06-07T03:07:05.857Z,79.00
2019-06-07T03:07:40.229Z,79.00
2019-06-07T03:08:09.834Z,79.00
2019-06-07T03:08:40.975Z,79.00
2019-06-07T03:09:12.093Z,79.00
2019-06-07T03:09:43.201Z,79.00
2019-06-07T03:10:14.601Z,79.00
2019-06-07T03:10:45.714Z,79.00
2019-06-07T03:11:16.824Z,78.90
2019-06-07T03:11:47.937Z,78.90
2019-06-07T03:12:19.053Z,78.60
2019-06-07T03:12:50.221Z,78.20
2019-06-07T03:13:21.358Z,78.00
2019-06-07T03:13:52.485Z,77.90
2019-06-07T03:14:23.596Z,78.00
2019-06-07T03:14:54.730Z,78.20
2019-06-07T03:15:35.383Z,78.20
2019-06-07T03:15:58.733Z,78.20
2019-06-07T03:16:31.301Z,78.20
2019-06-07T03:17:02.959Z,78.20
2019-06-07T03:17:36.478Z,78.20
2019-06-07T03:18:07.181Z,78.40
2019-06-07T03:18:41.530Z,78.20
2019-06-07T03:19:11.142Z,78.20
2019-06-07T03:19:42.249Z,78.20
2019-06-07T03:20:13.646Z,78.20
2019-06-07T03:20:44.754Z,78.90
2019-06-07T03:21:15.887Z,78.30
2019-06-07T03:21:47.002Z,78.40
2019-06-07T03:22:18.117Z,78.50
2019-06-07T03:22:49.241Z,78.50
2019-06-07T03:23:20.349Z,78.50
2019-06-07T03:23:51.461Z,78.50
2019-06-07T03:24:22.569Z,78.50
2019-06-07T03:24:53.682Z,78.60
2019-06-07T03:25:25.764Z,78.60
2019-06-07T03:25:56.989Z,78.60
2019-06-07T03:26:30.431Z,78.60
2019-06-07T03:27:41.468Z,78.60
2019-06-07T03:28:06.717Z,78.60
2019-06-07T03:28:39.561Z,78.60
2019-06-07T03:29:10.674Z,78.60
2019-06-07T03:29:41.802Z,78.60
2019-06-07T03:31:00.674Z,78.60
2019-06-07T03:31:18.589Z,78.70
2019-06-07T03:31:49.731Z,78.60
2019-06-07T03:32:20.850Z,78.60
2019-06-07T03:32:52.299Z,78.50
2019-06-07T03:33:23.550Z,78.50
2019-06-07T03:33:54.661Z,78.90
2019-06-07T03:34:25.778Z,78.70
2019-06-07T03:34:56.897Z,78.70
2019-06-07T03:35:30.987Z,78.70
2019-06-07T03:36:13.088Z,78.70
2019-06-07T03:36:35.355Z,78.90
2019-06-07T03:37:07.206Z,78.80
2019-06-07T03:37:42.611Z,78.70
2019-06-07T03:38:11.184Z,78.90
2019-06-07T03:38:42.297Z,78.60
2019-06-07T03:39:13.420Z,78.70
2019-06-07T03:39:44.521Z,79.00
2019-06-07T03:40:15.652Z,79.10
2019-06-07T03:40:46.766Z,79.20
2019-06-07T03:41:17.915Z,79.20
2019-06-07T03:42:05.145Z,79.20
2019-06-07T03:42:22.172Z,79.10
2019-06-07T03:42:53.622Z,79.10
2019-06-07T03:43:24.737Z,79.90
2019-06-07T03:43:55.849Z,79.20
2019-06-07T03:44:28.618Z,79.20
2019-06-07T03:44:59.798Z,79.20
2019-06-07T03:45:33.101Z,79.30
2019-06-07T03:46:03.773Z,79.30
2019-06-07T03:46:39.009Z,79.30
2019-06-07T03:47:07.722Z,79.30
2019-06-07T03:47:41.974Z,79.30
2019-06-07T03:48:11.693Z,79.30
2019-06-07T03:48:42.805Z,79.40
2019-06-07T03:49:13.937Z,79.40
2019-06-07T03:49:45.049Z,79.30
2019-06-07T03:50:16.170Z,79.20
2019-06-07T03:50:47.284Z,79.20
2019-06-07T03:51:25.013Z,79.30
2019-06-07T03:51:51.229Z,79.20
2019-06-07T03:52:22.341Z,79.30
2019-06-07T03:52:53.472Z,79.30
2019-06-07T03:53:24.605Z,79.20
2019-06-07T03:53:55.717Z,79.20
2019-06-07T03:54:27.238Z,79.10
2019-06-07T03:54:58.528Z,78.80
2019-06-07T03:55:30.370Z,78.50
2019-06-07T03:56:02.957Z,78.30
2019-06-07T03:56:36.029Z,78.50
2019-06-07T03:57:07.081Z,78.50
2019-06-07T03:58:29.235Z,78.50
2019-06-07T03:58:31.204Z,78.50
2019-06-07T03:58:49.541Z,78.30
2019-06-07T03:59:17.045Z,78.30
2019-06-07T03:59:48.176Z,78.20
2019-06-07T04:00:19.294Z,78.30
2019-06-07T04:00:50.409Z,78.30
2019-06-07T04:01:21.805Z,78.30
2019-06-07T04:01:52.941Z,78.30
2019-06-07T04:02:24.077Z,78.60
2019-06-07T04:02:55.192Z,78.50
2019-06-07T04:03:39.519Z,78.50
2019-06-07T04:03:59.408Z,78.50
2019-06-07T04:04:32.285Z,78.50
2019-06-07T04:05:03.369Z,78.50
2019-06-07T04:05:38.815Z,78.50
2019-06-07T04:06:07.331Z,78.60
2019-06-07T04:06:41.920Z,78.60
2019-06-07T04:07:11.286Z,78.60
2019-06-07T04:07:44.407Z,78.00
2019-06-07T04:08:15.259Z,78.60
2019-06-07T04:08:46.630Z,78.60
2019-06-07T04:09:17.741Z,78.70
2019-06-07T04:09:49.246Z,78.70
2019-06-07T04:10:42.738Z,78.60
2019-06-07T04:11:00.179Z,78.70
2019-06-07T04:11:26.068Z,78.70
2019-06-07T04:11:57.180Z,78.70
2019-06-07T04:12:28.570Z,78.70
2019-06-07T04:12:59.697Z,78.50
2019-06-07T04:13:36.678Z,78.60
2019-06-07T04:14:03.648Z,78.60
2019-06-07T04:14:35.741Z,79.50
2019-06-07T04:15:07.857Z,78.70
2019-06-07T04:15:41.368Z,78.70
2019-06-07T04:16:11.883Z,78.70
2019-06-07T04:16:44.778Z,78.70
2019-06-07T04:17:15.885Z,78.70
2019-06-07T04:18:01.481Z,78.70
2019-06-07T04:18:19.862Z,78.80
2019-06-07T04:18:50.996Z,78.80
2019-06-07T04:19:22.107Z,78.60
2019-06-07T04:19:53.216Z,78.70
2019-06-07T04:20:24.333Z,78.70
2019-06-07T04:20:55.459Z,78.80
2019-06-07T04:21:26.574Z,78.70
2019-06-07T04:21:57.709Z,78.70
2019-06-07T04:22:28.888Z,78.70
2019-06-07T04:23:00.005Z,79.00
2019-06-07T04:23:33.555Z,79.10
2019-06-07T04:24:03.953Z,79.20
2019-06-07T04:24:38.877Z,79.10
2019-06-07T04:25:07.948Z,79.20
2019-06-07T04:25:42.235Z,79.10
2019-06-07T04:26:11.887Z,79.20
2019-06-07T04:26:46.350Z,79.20
2019-06-07T04:27:15.861Z,79.30
2019-06-07T04:27:46.989Z,79.40
2019-06-07T04:28:18.121Z,79.30
2019-06-07T04:29:32.245Z,79.40
2019-06-07T04:29:33.304Z,79.40
2019-06-07T04:30:07.427Z,79.40
2019-06-07T04:30:29.333Z,79.40
2019-06-07T04:31:00.581Z,79.40
2019-06-07T04:31:32.656Z,79.50
2019-06-07T04:32:04.816Z,79.40
2019-06-07T04:32:37.059Z,79.30
2019-06-07T04:33:08.800Z,79.50
2019-06-07T04:33:43.637Z,78.70
2019-06-07T04:34:12.774Z,79.30
2019-06-07T04:34:43.881Z,79.30
2019-06-07T04:35:15.011Z,79.30
2019-06-07T04:35:46.131Z,79.30
2019-06-07T04:36:17.242Z,79.30
2019-06-07T04:36:58.640Z,79.30
2019-06-07T04:37:21.257Z,79.30
2019-06-07T04:37:52.369Z,79.20
2019-06-07T04:38:23.480Z,79.00
2019-06-07T04:38:54.596Z,78.70
2019-06-07T04:39:26.058Z,78.20
2019-06-07T04:39:57.202Z,78.50
2019-06-07T04:40:30.708Z,78.50
2019-06-07T04:41:01.701Z,78.50
2019-06-07T04:41:33.674Z,78.50
2019-06-07T04:42:05.940Z,78.50
2019-06-07T04:42:41.843Z,78.60
2019-06-07T04:43:10.207Z,78.60
2019-06-07T04:43:42.837Z,78.50
2019-06-07T04:44:14.148Z,78.70
2019-06-07T04:44:45.262Z,78.70
2019-06-07T04:45:32.975Z,78.70
2019-06-07T04:45:51.084Z,78.70
2019-06-07T04:46:22.046Z,78.80
2019-06-07T04:46:53.433Z,78.80
2019-06-07T04:47:24.537Z,78.80
2019-06-07T04:47:55.648Z,79.60
2019-06-07T04:48:26.774Z,78.80
2019-06-07T04:48:57.906Z,78.80
2019-06-07T04:49:29.887Z,78.80
2019-06-07T04:50:01.851Z,78.80
2019-06-07T04:50:35.379Z,78.90
2019-06-07T04:51:05.920Z,78.80
2019-06-07T04:51:40.607Z,78.80
2019-06-07T04:52:09.904Z,78.80
2019-06-07T04:52:44.854Z,79.60
2019-06-07T04:53:13.869Z,78.90
2019-06-07T04:53:44.977Z,78.90
2019-06-07T04:54:16.089Z,78.90
2019-06-07T04:54:47.196Z,78.80
2019-06-07T04:55:18.330Z,78.80
2019-06-07T04:55:49.469Z,79.00
2019-06-07T04:56:20.581Z,78.90
2019-06-07T04:56:51.693Z,78.90
2019-06-07T04:57:22.823Z,78.80
2019-06-07T04:57:53.935Z,78.80
2019-06-07T04:58:25.360Z,78.90
2019-06-07T04:58:56.461Z,79.00
2019-06-07T05:00:09.451Z,78.90
2019-06-07T05:00:22.269Z,78.90
2019-06-07T05:00:49.716Z,78.80
2019-06-07T05:01:24.418Z,78.80
2019-06-07T05:01:42.299Z,78.90
2019-06-07T05:02:12.316Z,78.80
2019-06-07T05:02:43.779Z,78.80
2019-06-07T05:03:15.021Z,78.80
2019-06-07T05:03:46.134Z,78.80
2019-06-07T05:04:17.266Z,78.80
2019-06-07T05:04:48.410Z,78.90
2019-06-07T05:05:19.521Z,78.90
2019-06-07T05:05:50.650Z,79.00
2019-06-07T05:06:21.751Z,79.00
2019-06-07T05:06:52.865Z,79.00
2019-06-07T05:07:23.985Z,79.10
2019-06-07T05:07:55.410Z,79.40
2019-06-07T05:08:28.545Z,79.40
2019-06-07T05:08:59.358Z,79.30
2019-06-07T05:09:32.457Z,79.30
2019-06-07T05:10:03.345Z,79.50
2019-06-07T05:10:36.166Z,79.40
2019-06-07T05:11:07.286Z,79.50
2019-06-07T05:11:39.419Z,79.50
2019-06-07T05:12:11.517Z,79.50
2019-06-07T05:12:44.134Z,80.30
2019-06-07T05:13:15.489Z,79.50
2019-06-07T05:13:46.613Z,79.50
2019-06-07T05:14:17.724Z,79.50
2019-06-07T05:14:48.845Z,79.50
2019-06-07T05:15:19.964Z,79.50
2019-06-07T05:15:51.073Z,79.50
2019-06-07T05:16:22.185Z,79.50
2019-06-07T05:16:53.629Z,79.50
2019-06-07T05:17:24.779Z,79.50
2019-06-07T05:17:55.929Z,79.50
2019-06-07T05:18:27.062Z,79.40
2019-06-07T05:18:58.456Z,79.50
2019-06-07T05:19:30.597Z,79.50
2019-06-07T05:20:02.397Z,79.40
2019-06-07T05:20:34.255Z,79.40
2019-06-07T05:21:06.375Z,79.40
2019-06-07T05:21:58.626Z,79.20
2019-06-07T05:22:10.368Z,78.90
2019-06-07T05:22:45.099Z,78.90
2019-06-07T05:23:59.351Z,79.00
2019-06-07T05:24:20.017Z,79.00
2019-06-07T05:24:51.154Z,79.00
2019-06-07T05:25:22.240Z,79.00
2019-06-07T05:25:53.364Z,79.00
2019-06-07T05:26:24.478Z,79.00
2019-06-07T05:26:55.590Z,79.00
2019-06-07T05:27:26.701Z,79.00
2019-06-07T05:27:57.817Z,79.10
2019-06-07T05:28:29.988Z,79.00
2019-06-07T05:29:01.261Z,79.20
2019-06-07T05:29:35.397Z,79.10
2019-06-07T05:30:23.870Z,79.10
2019-06-07T05:31:08.441Z,79.00
2019-06-07T05:31:11.228Z,79.10
2019-06-07T05:31:45.253Z,79.20
2019-06-07T05:32:15.176Z,79.00
2019-06-07T05:32:46.349Z,79.10
2019-06-07T05:33:17.473Z,79.10
2019-06-07T05:33:48.585Z,79.10
2019-06-07T05:34:19.731Z,79.10
2019-06-07T05:34:50.846Z,79.10
2019-06-07T05:35:21.999Z,79.00
2019-06-07T05:35:53.100Z,79.10
2019-06-07T05:36:24.234Z,79.10
2019-06-07T05:37:11.201Z,79.10
2019-06-07T05:37:28.198Z,79.20
2019-06-07T05:37:59.615Z,79.10
2019-06-07T05:38:31.099Z,79.10
2019-06-07T05:39:02.333Z,79.10
2019-06-07T05:39:36.830Z,79.10
2019-06-07T05:40:06.700Z,79.10
2019-06-07T05:40:41.968Z,79.10
2019-06-07T05:41:10.654Z,79.20
2019-06-07T05:41:44.164Z,79.20
2019-06-07T05:42:14.648Z,79.20
2019-06-07T05:42:46.679Z,79.20
2019-06-07T05:43:18.161Z,79.20
2019-06-07T05:44:09.158Z,79.20
2019-06-07T05:44:22.103Z,79.20
2019-06-07T05:44:53.236Z,79.20
2019-06-07T05:45:24.387Z,79.20
2019-06-07T05:45:55.501Z,79.20
2019-06-07T05:46:26.898Z,79.10
2019-06-07T05:46:58.009Z,79.20
2019-06-07T05:47:29.156Z,79.20
2019-06-07T05:48:00.334Z,79.20
2019-06-07T05:48:31.797Z,79.20
2019-06-07T05:49:03.385Z,79.30
2019-06-07T05:49:37.886Z,79.40
2019-06-07T05:50:37.949Z,79.40
2019-06-07T05:50:49.979Z,79.40
2019-06-07T05:51:13.721Z,79.50
2019-06-07T05:51:45.219Z,79.40
2019-06-07T05:52:16.565Z,78.80
2019-06-07T05:52:47.797Z,79.50
2019-06-07T05:53:18.965Z,79.60
2019-06-07T05:53:50.078Z,79.70
2019-06-07T05:54:21.523Z,79.70
2019-06-07T05:54:52.635Z,79.70
2019-06-07T05:55:23.744Z,79.70
2019-06-07T05:55:54.860Z,79.70
2019-06-07T05:56:26.249Z,79.70
2019-06-07T05:56:57.375Z,79.70
2019-06-07T05:57:28.811Z,80.50
2019-06-07T05:57:59.921Z,79.70
2019-06-07T05:58:31.286Z,79.70
2019-06-07T05:59:02.399Z,79.70
2019-06-07T05:59:34.336Z,79.70
2019-06-07T06:00:06.361Z,79.60
2019-06-07T06:00:39.028Z,79.70
2019-06-07T06:01:53.146Z,79.60
2019-06-07T06:02:22.459Z,79.60
2019-06-07T06:03:04.094Z,79.60
2019-06-07T06:03:21.760Z,79.60
2019-06-07T06:03:52.875Z,79.60
2019-06-07T06:04:23.981Z,79.60
2019-06-07T06:04:55.122Z,79.60
2019-06-07T06:05:34.297Z,79.60
2019-06-07T06:05:59.043Z,79.50
2019-06-07T06:06:30.161Z,79.50
2019-06-07T06:07:01.273Z,79.40
2019-06-07T06:07:34.759Z,79.40
2019-06-07T06:08:05.301Z,79.30
2019-06-07T06:08:38.146Z,79.30
2019-06-07T06:09:13.719Z,79.20
2019-06-07T06:09:43.200Z,79.20
2019-06-07T06:10:15.245Z,79.20
2019-06-07T06:10:48.626Z,80.00
2019-06-07T06:11:19.209Z,79.20
2019-06-07T06:12:01.711Z,79.20
2019-06-07T06:12:34.828Z,79.20
2019-06-07T06:12:56.000Z,79.10
2019-06-07T06:13:27.113Z,79.10
2019-06-07T06:14:07.383Z,79.20
2019-06-07T06:14:31.066Z,79.20
2019-06-07T06:15:02.178Z,79.10
2019-06-07T06:15:45.397Z,79.20
2019-06-07T06:16:06.438Z,79.20
2019-06-07T06:16:39.551Z,79.30
2019-06-07T06:17:10.405Z,79.20
2019-06-07T06:17:45.979Z,79.20
2019-06-07T06:18:14.372Z,79.20
2019-06-07T06:18:47.133Z,79.30
2019-06-07T06:19:18.389Z,79.20
2019-06-07T06:19:52.999Z,79.30
2019-06-07T06:20:22.350Z,79.30
2019-06-07T06:21:18.550Z,79.40
2019-06-07T06:21:26.286Z,79.30
2019-06-07T06:21:57.422Z,79.30
2019-06-07T06:22:28.541Z,79.30
2019-06-07T06:22:59.666Z,79.40
2019-06-07T06:23:30.799Z,79.30
2019-06-07T06:24:01.960Z,79.30
2019-06-07T06:24:33.098Z,79.30
2019-06-07T06:25:38.643Z,79.30
2019-06-07T06:26:10.061Z,79.30
2019-06-07T06:26:49.935Z,79.30
2019-06-07T06:27:55.083Z,79.30
2019-06-07T06:28:19.986Z,79.20
2019-06-07T06:28:51.194Z,79.20
2019-06-07T06:29:22.598Z,79.30
2019-06-07T06:29:53.730Z,79.30
2019-06-07T06:30:25.214Z,79.30
2019-06-07T06:30:56.413Z,79.20
2019-06-07T06:31:27.517Z,79.30
2019-06-07T06:32:56.809Z,79.50
2019-06-07T06:33:04.673Z,79.50
2019-06-07T06:33:35.773Z,79.60
2019-06-07T06:34:06.978Z,79.60
2019-06-07T06:34:40.156Z,79.70
2019-06-07T06:35:10.991Z,79.70
2019-06-07T06:35:42.475Z,79.70
2019-06-07T06:36:15.005Z,79.90
2019-06-07T06:36:47.835Z,79.90
2019-06-07T06:37:18.985Z,79.80
2019-06-07T06:37:53.347Z,79.90
2019-06-07T06:38:22.952Z,79.80
2019-06-07T06:38:54.085Z,80.70
2019-06-07T06:39:25.197Z,79.90
2019-06-07T06:39:56.308Z,79.90
2019-06-07T06:40:27.433Z,79.80
2019-06-07T06:41:14.375Z,79.90
2019-06-07T06:41:46.103Z,79.80
2019-06-07T06:42:04.270Z,79.90
2019-06-07T06:42:35.385Z,79.70
2019-06-07T06:43:06.852Z,79.80
2019-06-07T06:43:38.499Z,79.70
2019-06-07T06:44:10.808Z,79.70
2019-06-07T06:44:43.932Z,79.70
2019-06-07T06:45:14.814Z,79.70
2019-06-07T06:45:49.742Z,79.70
2019-06-07T06:46:37.375Z,79.70
2019-06-07T06:46:57.588Z,79.70
2019-06-07T06:47:24.884Z,79.50
2019-06-07T06:47:56.026Z,79.30
2019-06-07T06:48:27.194Z,79.30
2019-06-07T06:48:58.542Z,79.20
2019-06-07T06:49:30.002Z,79.20
2019-06-07T06:50:01.116Z,79.10
2019-06-07T06:50:32.570Z,79.20
2019-06-07T06:51:03.859Z,79.20
2019-06-07T06:51:34.998Z,79.20
2019-06-07T06:52:06.192Z,79.30
2019-06-07T06:52:39.950Z,79.30
2019-06-07T06:53:10.187Z,79.30
2019-06-07T06:53:42.203Z,79.30